MUAT weather

Antilla Airport
Antilla, HolguĂ­n, Cuba

Public forecast

Using degrees Celsius for public forecast. Weather courtesy of forecast.io.

Closest aviation weather report (METAR) to Antilla Airport

Report is more than 2 hours old.

Closest report is Frank Pais International Airport, 32.8 nm (60.8 km) W. Retrieved 2019/12/15 10:50 UTC (2 hours ago):

MUHG 151050Z 35002KT 3000 MIFG SKC 21/21 Q1016

Closest aviation forecast (TAF) to Antilla Airport

Closest forecast is Frank Pais International Airport, 32.8 nm (60.8 km) W. Retrieved 2019/12/15 12:03 UTC (47 minutes ago):

TAF MUHG 151100Z 1512/1612 VRB03KT 9000 SCT020 TEMPO 1512/1514 5000 BR BECMG 1515/1517 05010KT BECMG 1601/1603 VRB03KT